Time;durP1;ratioP1;P1;durP2;ratioP2;P2;SDS_P1;SDS_P2;PMS_P1;PMS_P2;Temp;Humidity;BMP_temperature;BMP_pressure;BME280_temperature;BME280_humidity;BME280_pressure;Samples;Min_cycle;Max_cycle;Signal;HPM_P1;HPM_P2
2022/05/08 00:00:04;;;;;;;8.27;4.70;;;11.00;99.90;;;;;;5033647;28;20103;-63
2022/05/08 00:02:29;;;;;;;7.07;4.15;;;11.00;99.90;;;;;;5029463;28;20120;-63
2022/05/08 00:04:55;;;;;;;7.00;5.00;;;10.90;99.90;;;;;;5035146;28;20105;-63
2022/05/08 00:07:22;;;;;;;9.00;5.00;;;10.80;99.90;;;;;;5032303;28;20022;-63
2022/05/08 00:09:49;;;;;;;6.43;4.65;;;10.70;99.90;;;;;;5033698;28;20037;-63
2022/05/08 00:12:16;;;;;;;6.32;4.45;;;10.70;99.90;;;;;;5033967;28;20076;-63
2022/05/08 00:14:43;;;;;;;5.38;4.30;;;10.70;99.90;;;;;;5031216;28;20021;-63
2022/05/08 00:17:13;;;;;;;5.82;4.15;;;10.70;99.90;;;;;;5031402;28;20076;-63
2022/05/08 00:19:43;;;;;;;11.45;4.80;;;10.50;99.90;;;;;;5033805;28;20268;-63
2022/05/08 00:22:11;;;;;;;7.22;4.75;;;10.30;99.90;;;;;;5033836;28;20129;-63
2022/05/08 00:24:37;;;;;;;8.45;4.40;;;10.60;99.90;;;;;;5037029;28;20067;-63
2022/05/08 00:27:03;;;;;;;6.68;4.35;;;10.60;99.90;;;;;;5035730;28;20033;-63
2022/05/08 00:29:29;;;;;;;5.30;4.80;;;10.60;99.90;;;;;;5032842;28;20368;-63
2022/05/08 00:31:55;;;;;;;6.03;4.75;;;10.60;99.90;;;;;;5038755;28;20051;-63
2022/05/08 00:34:21;;;;;;;7.00;4.60;;;10.50;99.90;;;;;;5037029;28;20025;-63
2022/05/08 00:36:46;;;;;;;5.78;4.20;;;10.30;99.90;;;;;;5036739;28;20038;-63
2022/05/08 00:39:13;;;;;;;7.00;4.40;;;10.20;99.90;;;;;;5036887;28;20043;-63
2022/05/08 00:41:39;;;;;;;5.85;4.13;;;10.20;99.90;;;;;;5034148;28;20041;-63
2022/05/08 00:44:05;;;;;;;8.45;4.60;;;10.20;99.90;;;;;;5035859;28;20040;-63
2022/05/08 00:46:31;;;;;;;6.13;4.68;;;10.30;99.90;;;;;;5038065;28;20486;-63
2022/05/08 00:48:57;;;;;;;6.50;4.70;;;10.30;99.90;;;;;;5036747;28;20031;-63
2022/05/08 00:51:26;;;;;;;8.10;5.00;;;10.20;99.90;;;;;;5036586;28;20025;-63
2022/05/08 00:53:54;;;;;;;8.40;4.45;;;10.20;99.90;;;;;;5035768;28;20115;-63
2022/05/08 00:56:21;;;;;;;6.45;4.85;;;10.20;99.90;;;;;;5033275;28;20013;-63
2022/05/08 00:58:48;;;;;;;5.85;4.60;;;10.10;99.90;;;;;;5038500;28;20033;-63
2022/05/08 01:01:15;;;;;;;8.55;4.97;;;10.10;99.90;;;;;;5035989;28;20041;-63
2022/05/08 01:03:41;;;;;;;6.85;4.90;;;10.10;99.90;;;;;;5036539;28;20038;-64
2022/05/08 01:06:10;;;;;;;8.52;5.32;;;10.00;99.90;;;;;;5035478;28;20059;-63
2022/05/08 01:08:37;;;;;;;7.22;5.05;;;9.90;99.90;;;;;;5033195;28;20052;-63
2022/05/08 01:11:06;;;;;;;6.38;4.78;;;9.90;99.90;;;;;;5036133;28;20025;-63
2022/05/08 01:13:32;;;;;;;6.90;5.00;;;9.70;99.90;;;;;;5036265;28;20021;-63
2022/05/08 01:15:58;;;;;;;8.20;4.68;;;9.60;99.90;;;;;;5036184;28;20033;-63
2022/05/08 01:18:24;;;;;;;6.85;4.55;;;9.50;99.90;;;;;;5036195;28;20022;-64
2022/05/08 01:20:51;;;;;;;6.07;4.80;;;9.60;99.90;;;;;;5035086;28;20048;-63
2022/05/08 01:23:18;;;;;;;5.88;4.82;;;9.60;99.90;;;;;;5032669;28;20053;-63
2022/05/08 01:25:54;;;;;;;8.88;5.18;;;9.60;99.90;;;;;;5038021;28;20475;-63
2022/05/08 01:28:21;;;;;;;6.22;4.95;;;9.60;99.90;;;;;;5035873;28;20038;-64
2022/05/08 01:30:49;;;;;;;7.85;5.28;;;9.50;99.90;;;;;;5035769;28;20033;-63
2022/05/08 01:33:16;;;;;;;7.13;4.80;;;9.50;99.90;;;;;;5035806;28;20098;-63
2022/05/08 01:35:43;;;;;;;7.15;4.90;;;9.40;99.90;;;;;;5031376;28;20048;-63
2022/05/08 01:38:10;;;;;;;6.60;5.07;;;9.40;99.90;;;;;;5033819;28;20477;-63
2022/05/08 01:40:36;;;;;;;8.32;5.38;;;9.40;99.90;;;;;;5037766;28;20148;-63
2022/05/08 01:43:03;;;;;;;6.00;4.88;;;;;;;;;;5035752;28;20041;-63
2022/05/08 01:45:29;;;;;;;8.27;5.43;;;9.30;99.90;;;;;;5034248;28;20044;-63
2022/05/08 01:50:40;;;;;;;5.13;4.63;;;9.20;99.90;;;;;;5019272;28;20036;-63
2022/05/08 01:53:06;;;;;;;10.05;4.90;;;9.10;99.90;;;;;;5035223;28;20025;-63
2022/05/08 01:55:32;;;;;;;9.10;5.95;;;9.10;99.90;;;;;;5036689;28;20025;-64
2022/05/08 01:57:58;;;;;;;6.78;5.20;;;9.10;99.90;;;;;;5035158;28;20550;-63
2022/05/08 02:00:25;;;;;;;5.95;5.18;;;9.10;99.90;;;;;;5035480;28;20021;-64
2022/05/08 02:02:52;;;;;;;7.82;5.20;;;;;;;;;;5034348;28;20124;-64
2022/05/08 02:05:22;;;;;;;6.57;5.25;;;9.00;99.90;;;;;;5032104;28;20403;-63
2022/05/08 02:07:49;;;;;;;7.38;5.35;;;9.00;99.90;;;;;;5037359;28;20113;-64
2022/05/08 02:10:19;;;;;;;7.63;5.20;;;8.90;99.90;;;;;;5035157;28;20169;-64
2022/05/08 02:12:45;;;;;;;7.75;5.43;;;8.90;99.90;;;;;;5034750;28;20584;-63
2022/05/08 02:15:12;;;;;;;8.38;5.57;;;8.90;99.90;;;;;;5035117;28;20033;-63
2022/05/08 02:17:39;;;;;;;8.07;5.43;;;8.90;99.90;;;;;;5032355;28;20033;-63
2022/05/08 02:20:07;;;;;;;7.43;5.22;;;8.70;99.90;;;;;;5034336;28;20562;-64
2022/05/08 02:22:33;;;;;;;5.85;4.93;;;8.70;99.90;;;;;;5036615;28;20048;-63
2022/05/08 02:24:59;;;;;;;7.93;5.30;;;8.70;99.90;;;;;;5033412;28;20104;-64
2022/05/08 02:27:25;;;;;;;7.68;5.70;;;8.70;99.90;;;;;;5034236;28;20551;-63
2022/05/08 02:29:51;;;;;;;7.68;5.80;;;8.80;99.90;;;;;;5033765;28;20025;-64
2022/05/08 02:32:18;;;;;;;8.30;5.75;;;8.80;99.90;;;;;;5031862;28;20901;-64
2022/05/08 02:34:45;;;;;;;6.57;5.40;;;8.70;99.90;;;;;;5036480;28;20028;-64
2022/05/08 02:37:11;;;;;;;6.15;5.30;;;8.70;99.90;;;;;;5034681;28;20057;-63
2022/05/08 02:39:37;;;;;;;6.70;5.10;;;8.60;99.90;;;;;;5034647;28;20038;-63
2022/05/08 02:42:03;;;;;;;6.05;5.40;;;8.60;99.90;;;;;;5034107;28;20109;-64
2022/05/08 02:44:29;;;;;;;6.13;5.53;;;8.60;99.90;;;;;;5031005;28;20025;-64
2022/05/08 02:46:54;;;;;;;7.13;5.55;;;8.60;99.90;;;;;;5036136;28;20029;-63
2022/05/08 02:49:20;;;;;;;10.50;6.45;;;8.50;99.90;;;;;;5033117;28;20676;-63
2022/05/08 02:51:46;;;;;;;9.55;6.07;;;8.50;99.90;;;;;;5034647;28;20033;-63
2022/05/08 02:54:12;;;;;;;6.57;5.68;;;8.40;99.90;;;;;;5034209;28;20024;-63
2022/05/08 02:59:25;;;;;;;7.40;5.60;;;8.30;99.90;;;;;;5014672;28;20156;-63
2022/05/08 03:01:50;;;;;;;8.50;5.65;;;8.30;99.90;;;;;;5036315;28;20553;-63
2022/05/08 03:04:16;;;;;;;8.75;6.00;;;8.30;99.90;;;;;;5032912;28;20091;-64
2022/05/08 03:06:42;;;;;;;7.45;5.65;;;8.30;99.90;;;;;;5033995;28;20068;-63
2022/05/08 03:09:08;;;;;;;6.43;5.70;;;8.30;99.90;;;;;;5033321;28;20056;-63
2022/05/08 03:11:33;;;;;;;8.57;5.70;;;8.20;99.90;;;;;;5030327;28;20106;-63
2022/05/08 03:14:00;;;;;;;7.55;5.45;;;8.20;99.90;;;;;;5034799;28;20022;-63
2022/05/08 03:16:28;;;;;;;7.20;5.78;;;8.20;99.90;;;;;;5033208;28;20025;-63
2022/05/08 03:18:55;;;;;;;6.82;5.68;;;8.20;99.90;;;;;;5034020;28;20034;-64
2022/05/08 03:21:22;;;;;;;7.10;5.70;;;8.20;99.90;;;;;;5034305;28;20025;-64
2022/05/08 03:23:48;;;;;;;13.35;5.75;;;8.00;99.90;;;;;;5032502;28;20033;-63
2022/05/08 03:26:14;;;;;;;8.15;5.93;;;8.00;99.90;;;;;;5030867;28;20112;-63
2022/05/08 03:28:41;;;;;;;8.52;5.75;;;8.10;99.90;;;;;;5035992;28;20033;-63
2022/05/08 03:31:08;;;;;;;8.10;5.63;;;8.10;99.90;;;;;;5034008;28;20026;-64
2022/05/08 03:33:34;;;;;;;8.50;5.65;;;7.90;99.90;;;;;;5034011;28;20030;-63
2022/05/08 03:36:01;;;;;;;6.63;5.95;;;7.90;99.90;;;;;;5034013;28;20325;-63
2022/05/08 03:38:30;;;;;;;7.78;5.68;;;7.90;99.90;;;;;;5030008;28;20041;-64
2022/05/08 03:40:56;;;;;;;7.57;5.78;;;7.90;99.90;;;;;;5043141;28;20025;-63
2022/05/08 03:43:23;;;;;;;8.60;6.07;;;8.00;99.90;;;;;;5032538;28;20144;-64
2022/05/08 03:45:49;;;;;;;12.15;6.22;;;8.00;99.90;;;;;;5034042;28;20065;-64
2022/05/08 03:48:19;;;;;;;6.53;5.60;;;8.00;99.90;;;;;;5034061;28;20116;-63
2022/05/08 03:50:45;;;;;;;5.47;4.97;;;8.00;99.90;;;;;;5032099;28;20084;-63
2022/05/08 03:53:11;;;;;;;6.80;5.80;;;7.90;99.90;;;;;;5031814;28;20025;-63
2022/05/08 03:55:37;;;;;;;6.47;5.60;;;7.90;99.90;;;;;;5033067;28;20045;-64
2022/05/08 03:58:03;;;;;;;6.95;5.70;;;7.90;99.90;;;;;;5035774;28;20057;-63
2022/05/08 04:00:29;;;;;;;9.07;5.95;;;8.00;99.90;;;;;;5037687;28;20080;-63
2022/05/08 04:02:55;;;;;;;9.55;6.68;;;8.00;99.90;;;;;;5037010;28;20090;-63
2022/05/08 04:05:22;;;;;;;8.48;5.78;;;8.00;99.90;;;;;;5033761;28;20025;-64
2022/05/08 04:07:48;;;;;;;7.25;6.35;;;7.70;99.90;;;;;;5039842;28;20068;-63
2022/05/08 04:10:13;;;;;;;8.45;6.28;;;7.60;99.90;;;;;;5037115;28;20036;-64
2022/05/08 04:12:39;;;;;;;7.35;6.22;;;7.80;99.90;;;;;;5037351;28;20037;-63
2022/05/08 04:17:50;;;;;;;7.72;6.30;;;7.70;99.90;;;;;;5036261;28;20075;-64
2022/05/08 04:20:16;;;;;;;11.48;6.30;;;7.50;99.90;;;;;;5033922;28;20037;-64
2022/05/08 04:25:26;;;;;;;7.47;5.45;;;7.60;99.90;;;;;;5036600;28;20064;-63
2022/05/08 04:27:51;;;;;;;8.55;6.07;;;7.40;99.90;;;;;;5037107;28;20033;-63
2022/05/08 04:30:17;;;;;;;9.68;6.50;;;7.60;99.90;;;;;;5037401;28;20021;-63
2022/05/08 04:32:43;;;;;;;7.88;6.05;;;7.50;99.90;;;;;;5035089;28;20025;-63
2022/05/08 04:35:08;;;;;;;8.02;6.25;;;7.50;99.90;;;;;;5034990;28;20426;-64
2022/05/08 04:37:34;;;;;;;9.68;6.28;;;7.40;99.90;;;;;;5038171;28;20049;-64
2022/05/08 04:40:00;;;;;;;9.77;6.57;;;7.50;99.90;;;;;;5022240;28;20041;-63
2022/05/08 04:42:26;;;;;;;6.53;5.85;;;7.40;99.90;;;;;;5036900;28;20037;-64
2022/05/08 04:44:51;;;;;;;7.43;6.25;;;7.40;99.90;;;;;;5036010;28;20028;-63
2022/05/08 04:47:17;;;;;;;11.93;5.90;;;7.50;99.90;;;;;;5033714;28;20026;-63
2022/05/08 04:49:43;;;;;;;12.77;6.47;;;7.50;99.90;;;;;;5038705;28;20388;-64
2022/05/08 04:52:10;;;;;;;9.10;6.30;;;7.70;99.90;;;;;;5036482;28;20036;-63
2022/05/08 04:54:35;;;;;;;7.35;5.68;;;7.90;99.90;;;;;;5036400;28;20038;-63
2022/05/08 04:57:02;;;;;;;7.75;6.22;;;8.10;99.90;;;;;;5037055;28;20035;-64
2022/05/08 04:59:27;;;;;;;10.85;6.20;;;8.10;99.90;;;;;;5030996;28;20034;-63
2022/05/08 05:01:53;;;;;;;6.88;5.95;;;8.10;99.90;;;;;;5038281;28;20033;-63
2022/05/08 05:04:19;;;;;;;9.45;6.30;;;8.10;99.90;;;;;;5036315;28;20068;-63
2022/05/08 05:06:44;;;;;;;9.70;6.55;;;8.20;99.90;;;;;;5035105;28;20041;-63
2022/05/08 05:09:10;;;;;;;9.18;6.68;;;8.10;99.90;;;;;;5036377;28;20060;-64
2022/05/08 05:11:36;;;;;;;8.52;6.72;;;8.10;99.90;;;;;;5033376;28;20030;-63
2022/05/08 05:14:01;;;;;;;8.48;6.28;;;8.20;99.90;;;;;;5036647;28;20395;-63
2022/05/08 05:16:27;;;;;;;10.02;7.93;;;8.40;99.90;;;;;;5037016;28;20092;-64
2022/05/08 05:18:53;;;;;;;9.95;8.10;;;8.50;99.90;;;;;;5034721;28;20041;-64
2022/05/08 05:21:18;;;;;;;13.43;8.52;;;8.60;99.90;;;;;;5035929;28;20041;-64
2022/05/08 05:23:44;;;;;;;31.20;11.70;;;8.50;99.90;;;;;;5034243;28;20033;-64
2022/05/08 05:26:10;;;;;;;25.92;12.93;;;8.60;99.90;;;;;;5034068;28;20091;-63
2022/05/08 05:28:35;;;;;;;67.25;16.27;;;8.60;99.90;;;;;;5035825;28;20025;-63
2022/05/08 05:31:01;;;;;;;69.47;15.27;;;8.60;99.90;;;;;;5036071;28;20025;-64
2022/05/08 05:33:27;;;;;;;38.15;15.30;;;8.80;99.90;;;;;;5035916;28;20041;-64
2022/05/08 05:35:52;;;;;;;55.42;13.98;;;9.10;99.90;;;;;;5034826;28;20025;-64
2022/05/08 05:38:18;;;;;;;56.85;12.65;;;9.20;99.90;;;;;;5031845;28;20507;-63
2022/05/08 05:40:44;;;;;;;34.22;13.13;;;9.30;99.90;;;;;;5036640;28;20120;-64
2022/05/08 05:43:10;;;;;;;54.67;14.55;;;9.60;99.90;;;;;;5035844;28;20042;-63
2022/05/08 05:45:35;;;;;;;59.80;14.20;;;9.60;99.90;;;;;;5035714;28;20037;-64
2022/05/08 05:48:01;;;;;;;47.22;14.30;;;9.70;99.90;;;;;;5035828;28;20508;-63
2022/05/08 05:50:28;;;;;;;37.30;13.43;;;9.80;99.90;;;;;;5031004;28;20025;-63
2022/05/08 05:52:54;;;;;;;40.42;12.35;;;9.80;99.90;;;;;;5037410;28;20418;-64
2022/05/08 05:55:20;;;;;;;60.10;12.60;;;10.10;99.90;;;;;;5035849;28;20112;-64
2022/05/08 05:57:46;;;;;;;26.02;12.18;;;10.10;99.90;;;;;;5035577;28;20061;-64
2022/05/08 06:00:16;;;;;;;32.85;11.07;;;10.30;99.90;;;;;;5035462;28;20025;-63
2022/05/08 06:02:43;;;;;;;28.55;11.48;;;10.30;99.90;;;;;;5033105;28;20034;-64
2022/05/08 06:05:14;;;;;;;27.83;11.27;;;10.20;99.90;;;;;;5032888;28;20426;-64
2022/05/08 06:07:42;;;;;;;38.20;11.52;;;10.30;99.90;;;;;;5036114;28;20026;-63
2022/05/08 06:10:09;;;;;;;25.98;11.95;;;10.50;99.90;;;;;;5035205;28;20124;-64
2022/05/08 06:12:35;;;;;;;22.23;12.70;;;10.40;99.90;;;;;;5035143;28;20021;-64
2022/05/08 06:15:02;;;;;;;15.90;11.45;;;10.60;99.90;;;;;;5035221;28;20090;-63
2022/05/08 06:17:27;;;;;;;14.60;10.23;;;10.80;99.90;;;;;;5029455;28;20040;-64
2022/05/08 06:19:53;;;;;;;14.85;9.90;;;11.10;99.90;;;;;;5036720;28;20033;-64
2022/05/08 06:22:19;;;;;;;10.02;8.25;;;11.60;99.90;;;;;;5034700;28;20351;-64
2022/05/08 06:24:45;;;;;;;10.23;8.45;;;14.60;99.90;;;;;;5034887;28;20044;-63
2022/05/08 06:27:11;;;;;;;8.27;7.15;;;15.90;99.90;;;;;;5034920;28;20107;-64
2022/05/08 06:29:37;;;;;;;9.73;7.28;;;17.30;99.90;;;;;;5031885;28;20108;-64
2022/05/08 06:32:03;;;;;;;8.82;7.40;;;18.40;99.90;;;;;;5035009;28;20021;-64
2022/05/08 06:34:29;;;;;;;8.48;7.57;;;19.30;99.90;;;;;;5035387;28;20057;-64
2022/05/08 06:36:55;;;;;;;7.55;6.70;;;19.60;99.90;;;;;;5034626;28;20034;-64
2022/05/08 06:39:21;;;;;;;8.10;7.30;;;20.30;99.90;;;;;;5034675;28;20060;-64
2022/05/08 06:41:47;;;;;;;8.27;6.78;;;21.40;99.90;;;;;;5033040;28;20036;-63
2022/05/08 06:44:13;;;;;;;7.40;6.15;;;21.50;99.90;;;;;;5032081;28;20030;-64
2022/05/08 06:46:39;;;;;;;7.00;5.80;;;21.50;99.90;;;;;;5036597;28;20026;-63
2022/05/08 06:49:06;;;;;;;6.38;5.65;;;22.00;99.90;;;;;;5034247;28;20445;-64
2022/05/08 06:51:36;;;;;;;7.47;6.28;;;22.60;99.90;;;;;;5034935;28;20399;-63
2022/05/08 06:54:03;;;;;;;7.28;5.88;;;22.80;99.90;;;;;;5034392;28;20504;-64
2022/05/08 06:56:31;;;;;;;6.55;5.85;;;23.50;99.90;;;;;;5029010;28;20036;-64
2022/05/08 07:01:43;;;;;;;5.75;5.20;;;24.00;99.90;;;;;;5035108;28;20084;-64
2022/05/08 07:04:10;;;;;;;6.60;5.90;;;21.30;99.90;;;;;;5033913;28;20116;-64
2022/05/08 07:06:38;;;;;;;7.72;5.90;;;21.70;99.90;;;;;;5034284;28;20083;-64
2022/05/08 07:09:07;;;;;;;5.72;4.90;;;22.40;99.90;;;;;;5034376;28;20028;-63
2022/05/08 07:11:33;;;;;;;6.13;5.22;;;21.90;99.90;;;;;;5030906;28;20029;-64
2022/05/08 07:14:00;;;;;;;5.75;4.88;;;20.80;99.90;;;;;;5034563;28;20562;-64
2022/05/08 07:16:27;;;;;;;7.88;5.28;;;23.60;99.90;;;;;;5033427;28;20018;-64
2022/05/08 07:18:53;;;;;;;5.13;4.40;;;24.00;99.90;;;;;;5034081;28;20525;-63
2022/05/08 07:21:19;;;;;;;6.32;4.90;;;24.70;99.90;;;;;;5034091;28;20057;-64
2022/05/08 07:23:48;;;;;;;5.57;4.60;;;25.40;99.90;;;;;;5032454;28;20029;-63
2022/05/08 07:26:14;;;;;;;5.50;4.60;;;26.40;96.20;;;;;;5031347;28;20033;-64
2022/05/08 07:28:41;;;;;;;5.38;4.88;;;26.40;96.60;;;;;;5035923;28;20037;-63
2022/05/08 07:31:07;;;;;;;4.88;4.38;;;26.20;99.20;;;;;;5034220;28;20029;-63
2022/05/08 07:33:35;;;;;;;4.85;4.35;;;26.90;96.10;;;;;;5036810;28;20087;-64
2022/05/08 07:36:14;;;;;;;5.95;5.03;;;26.90;93.70;;;;;;5036831;28;20103;-63
2022/05/08 07:38:41;;;;;;;5.30;4.20;;;26.20;94.90;;;;;;5035386;28;20075;-64
2022/05/08 07:41:08;;;;;;;6.20;4.60;;;27.50;93.20;;;;;;5036854;28;20208;-64
2022/05/08 07:43:33;;;;;;;4.80;4.30;;;28.50;92.30;;;;;;5039441;28;20383;-64
2022/05/08 07:45:59;;;;;;;4.32;3.92;;;28.90;92.10;;;;;;5037598;28;20041;-63
2022/05/08 07:48:25;;;;;;;5.00;3.90;;;28.50;91.80;;;;;;5038019;28;20025;-63
2022/05/08 07:50:51;;;;;;;4.22;3.83;;;29.10;91.00;;;;;;5037349;28;20055;-63
2022/05/08 07:53:18;;;;;;;4.88;3.70;;;29.90;90.60;;;;;;5034649;28;22391;-64
2022/05/08 07:55:51;;;;;;;3.60;3.30;;;28.80;92.10;;;;;;5039788;28;20441;-64
2022/05/08 07:58:16;;;;;;;4.90;3.60;;;31.00;88.50;;;;;;5037805;28;20057;-63
2022/05/08 08:00:42;;;;;;;3.75;3.35;;;28.70;89.60;;;;;;5037811;28;20580;-63
2022/05/08 08:03:08;;;;;;;3.67;3.38;;;30.70;87.80;;;;;;5037451;28;20456;-64
2022/05/08 08:05:33;;;;;;;3.72;3.30;;;30.20;85.20;;;;;;5034268;28;20030;-63
2022/05/08 08:07:59;;;;;;;4.55;3.25;;;31.20;87.60;;;;;;5038634;28;20479;-64
2022/05/08 08:10:25;;;;;;;3.30;2.90;;;32.80;82.80;;;;;;5036742;28;20027;-63
2022/05/08 08:12:50;;;;;;;3.60;3.10;;;32.40;81.70;;;;;;5037479;28;20848;-64
2022/05/08 08:15:16;;;;;;;4.10;2.95;;;31.00;83.80;;;;;;5036119;28;20049;-63
2022/05/08 08:17:42;;;;;;;4.40;3.22;;;30.90;84.30;;;;;;5035187;28;20017;-64
2022/05/08 08:20:08;;;;;;;4.32;2.92;;;30.40;85.20;;;;;;5036385;28;20088;-64
2022/05/08 08:22:34;;;;;;;2.95;2.65;;;30.20;84.20;;;;;;5038970;28;20124;-64
2022/05/08 08:25:00;;;;;;;2.72;2.47;;;30.00;81.40;;;;;;5037482;28;20026;-63
2022/05/08 08:27:29;;;;;;;4.10;2.60;;;32.10;79.00;;;;;;5037740;28;20128;-64
2022/05/08 08:29:55;;;;;;;2.78;2.58;;;31.00;82.00;;;;;;5036430;28;20108;-63
2022/05/08 08:32:22;;;;;;;3.10;2.70;;;30.70;82.50;;;;;;5033357;28;20473;-64
2022/05/08 08:34:48;;;;;;;3.20;2.40;;;31.70;80.40;;;;;;5039520;28;20074;-64
2022/05/08 08:37:14;;;;;;;4.68;2.40;;;31.90;77.50;;;;;;5036833;28;20057;-64
2022/05/08 08:39:40;;;;;;;2.83;2.50;;;33.20;78.10;;;;;;5037581;28;20029;-64
2022/05/08 08:42:12;;;;;;;3.55;2.33;;;35.40;73.50;;;;;;5036790;28;20067;-63
2022/05/08 08:47:44;;;;;;;2.58;2.30;;;33.00;74.50;;;;;;5016846;28;20065;-64
2022/05/08 08:50:11;;;;;;;3.50;2.25;;;32.00;75.70;;;;;;5046985;28;20504;-64
2022/05/08 08:52:37;;;;;;;2.70;2.17;;;33.00;73.50;;;;;;5037070;28;20025;-64
2022/05/08 08:55:06;;;;;;;3.33;2.22;;;32.70;74.50;;;;;;5035256;28;20112;-64
2022/05/08 08:57:31;;;;;;;4.53;2.20;;;32.80;73.60;;;;;;5037001;28;20092;-64
2022/05/08 08:59:57;;;;;;;2.63;2.20;;;30.00;77.50;;;;;;5036298;28;20035;-64
2022/05/08 09:02:23;;;;;;;4.65;2.42;;;28.90;78.40;;;;;;5033017;28;20033;-64
2022/05/08 09:04:49;;;;;;;3.15;2.20;;;29.30;79.00;;;;;;5038721;28;20030;-64
2022/05/08 09:07:33;;;;;;;3.67;2.42;;;31.10;75.30;;;;;;5036587;28;20068;-64
2022/05/08 09:10:10;;;;;;;2.63;2.05;;;30.60;75.90;;;;;;5036530;28;20033;-64
2022/05/08 09:12:36;;;;;;;3.05;2.40;;;30.80;76.30;;;;;;5036564;28;20087;-64
2022/05/08 09:15:32;;;;;;;4.28;2.28;;;30.60;75.20;;;;;;5036549;28;20036;-64
2022/05/08 09:18:08;;;;;;;3.80;1.90;;;32.50;76.40;;;;;;5034889;28;20064;-64
2022/05/08 09:20:41;;;;;;;3.17;2.20;;;32.30;77.10;;;;;;5018292;28;20022;-64
2022/05/08 09:23:11;;;;;;;2.28;2.00;;;31.70;76.10;;;;;;5035215;28;20033;-64
2022/05/08 09:25:56;;;;;;;3.58;2.10;;;28.30;79.10;;;;;;5036352;28;20509;-63
2022/05/08 09:28:30;;;;;;;2.83;1.80;;;31.20;76.50;;;;;;5034844;28;20033;-63
2022/05/08 09:31:09;;;;;;;3.03;2.00;;;33.40;73.20;;;;;;5035725;28;20017;-64
2022/05/08 09:33:41;;;;;;;3.25;2.00;;;34.10;72.50;;;;;;5034795;28;20402;-64
2022/05/08 09:36:18;;;;;;;3.30;2.17;;;33.70;73.10;;;;;;5035834;28;20824;-64
2022/05/08 09:38:52;;;;;;;3.58;2.08;;;33.20;73.00;;;;;;5034043;28;20400;-64
2022/05/08 09:41:38;;;;;;;3.05;2.10;;;30.10;76.60;;;;;;5032971;28;20056;-63
2022/05/08 09:44:24;;;;;;;3.00;1.85;;;29.70;79.10;;;;;;5045983;28;20075;-64
2022/05/08 09:46:50;;;;;;;3.67;2.28;;;31.80;76.70;;;;;;5037502;28;20107;-63
2022/05/08 09:49:19;;;;;;;2.35;1.95;;;32.40;70.90;;;;;;5035907;28;20069;-64
2022/05/08 09:51:47;;;;;;;3.60;1.92;;;31.50;74.30;;;;;;5036365;28;20044;-64
2022/05/08 09:54:17;;;;;;;2.92;1.80;;;32.20;74.50;;;;;;5035664;28;20448;-64
2022/05/08 09:56:46;;;;;;;3.28;1.90;;;29.50;73.60;;;;;;5032370;28;20087;-64
2022/05/08 09:59:13;;;;;;;4.22;2.00;;;29.80;75.90;;;;;;5033181;28;20423;-64
2022/05/08 10:01:40;;;;;;;4.22;2.10;;;28.70;75.10;;;;;;5037610;28;20030;-63
2022/05/08 10:04:06;;;;;;;5.07;1.90;;;28.50;76.90;;;;;;5035555;28;20028;-63
2022/05/08 10:06:35;;;;;;;3.08;2.13;;;28.80;73.40;;;;;;5035380;28;20030;-64
2022/05/08 10:14:33;;;;;;;2.38;1.65;;;31.60;70.30;;;;;;5016950;28;20029;-64
2022/05/08 10:17:06;;;;;;;4.25;1.73;;;29.90;72.10;;;;;;5035900;28;20044;-63
2022/05/08 10:19:31;;;;;;;4.75;1.90;;;28.70;75.60;;;;;;5036350;28;20528;-64
2022/05/08 10:22:02;;;;;;;3.55;2.28;;;30.50;72.90;;;;;;5035098;28;20041;-63
2022/05/08 10:24:32;;;;;;;5.70;1.98;;;30.30;72.00;;;;;;5035423;28;20029;-64
2022/05/08 10:27:25;;;;;;;2.80;1.70;;;31.40;68.50;;;;;;5033339;28;20182;-64
2022/05/08 10:29:52;;;;;;;;;;;28.30;72.10;;;;;;5022192;28;20040;-64
2022/05/08 10:32:32;;;;;;;4.65;2.13;;;30.30;72.70;;;;;;5031745;28;20390;-63
2022/05/08 10:35:20;;;;;;;4.72;2.05;;;30.80;69.50;;;;;;5045024;28;20057;-63
2022/05/08 10:37:53;;;;;;;6.18;3.80;;;29.50;72.60;;;;;;5035877;28;20041;-64
2022/05/08 10:40:22;;;;;;;4.45;2.58;;;29.00;74.80;;;;;;5035077;28;20053;-64
2022/05/08 10:42:54;;;;;;;4.72;1.95;;;29.90;72.20;;;;;;5034772;28;20045;-64
2022/05/08 10:45:32;;;;;;;3.85;2.08;;;31.10;72.60;;;;;;5034753;28;20037;-64
2022/05/08 10:48:07;;;;;;;4.25;2.20;;;28.70;70.90;;;;;;5034735;28;20056;-64
2022/05/08 10:50:33;;;;;;;3.75;1.88;;;28.80;72.80;;;;;;5029873;28;20030;-64
2022/05/08 10:52:58;;;;;;;3.15;1.98;;;28.90;70.70;;;;;;5035764;28;20017;-63
2022/05/08 10:55:25;;;;;;;3.53;2.03;;;29.20;70.70;;;;;;5034538;28;20021;-64
2022/05/08 10:57:52;;;;;;;5.57;3.83;;;28.00;72.90;;;;;;5035040;28;20026;-64
2022/05/08 11:00:24;;;;;;;4.15;1.70;;;29.00;70.80;;;;;;5034644;28;20111;-64
2022/05/08 11:02:57;;;;;;;4.22;1.90;;;29.00;69.50;;;;;;5032725;28;20029;-63
2022/05/08 11:05:29;;;;;;;3.03;1.75;;;29.40;68.60;;;;;;5030449;28;20047;-63
2022/05/08 11:08:00;;;;;;;4.53;1.73;;;28.70;70.60;;;;;;5043890;28;20087;-63
2022/05/08 11:10:33;;;;;;;6.63;1.80;;;28.90;69.80;;;;;;5033396;28;20045;-63
2022/05/08 11:13:10;;;;;;;5.05;2.42;;;26.90;73.20;;;;;;5034490;28;20120;-63
2022/05/08 11:15:43;;;;;;;2.83;2.05;;;26.10;75.90;;;;;;5034318;28;20033;-64
2022/05/08 11:18:18;;;;;;;4.25;1.92;;;26.10;74.20;;;;;;5034218;28;20017;-63
2022/05/08 11:20:47;;;;;;;3.03;1.83;;;26.70;74.00;;;;;;5032485;28;20083;-64
2022/05/08 11:23:18;;;;;;;4.63;1.95;;;26.80;74.00;;;;;;5031333;28;20038;-63
2022/05/08 11:25:49;;;;;;;4.20;2.22;;;25.50;73.60;;;;;;5036220;28;20033;-63
2022/05/08 11:28:20;;;;;;;3.05;2.00;;;25.40;76.20;;;;;;5034258;28;20509;-64
2022/05/08 11:30:46;;;;;;;3.22;2.15;;;26.70;73.30;;;;;;5032868;28;20568;-63
2022/05/08 11:36:04;;;;;;;5.70;1.83;;;25.70;77.70;;;;;;5034056;28;20059;-63
2022/05/08 11:38:41;;;;;;;3.88;1.85;;;26.40;73.10;;;;;;5015247;28;20053;-64
2022/05/08 11:41:16;;;;;;;4.07;1.80;;;26.80;71.60;;;;;;5033055;28;20025;-63
2022/05/08 11:43:44;;;;;;;3.45;2.05;;;25.20;75.10;;;;;;5034561;28;20122;-64
2022/05/08 11:46:15;;;;;;;4.55;1.90;;;25.10;76.60;;;;;;5032839;28;20435;-63
2022/05/08 11:48:47;;;;;;;3.83;2.13;;;26.20;72.90;;;;;;5034294;28;20045;-63
2022/05/08 11:51:15;;;;;;;2.50;1.65;;;25.30;75.70;;;;;;5034272;28;20508;-63
2022/05/08 11:53:45;;;;;;;3.38;2.00;;;25.40;76.70;;;;;;5029941;28;20486;-64
2022/05/08 11:56:30;;;;;;;2.25;1.88;;;25.00;76.90;;;;;;5031654;28;20014;-64
2022/05/08 11:58:58;;;;;;;4.80;2.53;;;25.70;77.60;;;;;;5043548;28;20170;-64
2022/05/08 12:01:35;;;;;;;3.97;1.95;;;26.20;75.00;;;;;;5034253;28;20490;-63
2022/05/08 12:04:21;;;;;;;3.80;2.30;;;25.90;74.60;;;;;;5034035;28;20168;-64
2022/05/08 12:07:07;;;;;;;4.57;1.98;;;26.00;74.50;;;;;;5033852;28;20453;-63
2022/05/08 12:09:41;;;;;;;3.85;2.05;;;26.50;76.00;;;;;;5032431;28;20504;-63
2022/05/08 12:12:26;;;;;;;3.40;1.90;;;27.00;72.70;;;;;;5033792;28;20029;-63
2022/05/08 12:15:22;;;;;;;5.93;1.95;;;27.00;71.90;;;;;;5032763;28;20017;-63
2022/05/08 12:17:47;;;;;;;3.30;1.92;;;26.80;72.20;;;;;;5019237;28;20117;-63
2022/05/08 12:20:17;;;;;;;4.13;2.08;;;26.20;74.20;;;;;;5034824;28;20100;-63
2022/05/08 12:22:44;;;;;;;5.50;1.92;;;24.80;75.90;;;;;;5039215;28;20045;-63
2022/05/08 12:25:11;;;;;;;3.63;1.55;;;25.30;75.30;;;;;;5037612;28;20017;-63
2022/05/08 12:27:37;;;;;;;2.45;1.80;;;26.20;75.50;;;;;;5037413;28;20575;-63
2022/05/08 12:30:09;;;;;;;3.30;2.05;;;26.00;73.80;;;;;;5037235;28;20490;-64
2022/05/08 12:32:36;;;;;;;5.20;1.83;;;25.80;74.40;;;;;;5033771;28;20034;-63
2022/05/08 12:35:03;;;;;;;2.53;1.70;;;26.80;73.10;;;;;;5037363;28;20049;-63
2022/05/08 12:37:29;;;;;;;3.70;2.00;;;26.30;72.40;;;;;;5037687;28;20050;-63
2022/05/08 12:39:55;;;;;;;3.55;2.05;;;25.40;71.90;;;;;;5037117;28;20033;-63
2022/05/08 12:42:21;;;;;;;3.78;2.10;;;25.40;72.80;;;;;;5036954;28;20045;-63
2022/05/08 12:44:47;;;;;;;4.72;1.80;;;26.70;70.50;;;;;;5035245;28;20053;-63
2022/05/08 12:47:14;;;;;;;3.10;1.83;;;27.80;70.70;;;;;;5035613;28;20039;-63
2022/05/08 12:49:41;;;;;;;3.60;1.80;;;27.80;71.90;;;;;;5037051;28;20134;-62
2022/05/08 12:52:08;;;;;;;2.55;1.90;;;27.50;68.80;;;;;;5036467;28;20425;-64
2022/05/08 12:54:34;;;;;;;2.22;1.75;;;28.10;70.40;;;;;;5036959;28;20026;-63
2022/05/08 12:57:02;;;;;;;3.50;1.90;;;28.90;69.50;;;;;;5036944;28;20032;-63
2022/05/08 12:59:46;;;;;;;2.78;1.65;;;28.90;71.80;;;;;;5016942;28;20041;-63
2022/05/08 13:02:16;;;;;;;5.28;2.00;;;28.90;71.60;;;;;;5046583;28;20521;-64
2022/05/08 13:04:43;;;;;;;1.90;1.70;;;27.40;71.60;;;;;;5037141;28;20022;-63
2022/05/08 13:07:09;;;;;;;3.13;1.90;;;26.60;73.40;;;;;;5036810;28;20026;-65
2022/05/08 13:09:35;;;;;;;3.40;1.80;;;26.50;73.10;;;;;;5036622;28;20025;-63
2022/05/08 13:12:03;;;;;;;3.85;1.83;;;27.30;72.90;;;;;;5036654;28;20028;-64
2022/05/08 13:14:30;;;;;;;3.25;1.92;;;27.70;71.00;;;;;;5032170;28;20029;-64
2022/05/08 13:16:56;;;;;;;2.10;1.50;;;27.30;71.40;;;;;;5038295;28;20100;-64
2022/05/08 13:19:22;;;;;;;3.53;1.58;;;27.70;71.10;;;;;;5036216;28;20379;-64